sensor_id;sensor_type;location;lat;lon;timestamp;pressure;altitude;pressure_sealevel;temperature;humidity
61697;BME280;47610;52.252;20.922;2023-01-26T00:03:02;101158.42;;;0.28;100.00
61697;BME280;47610;52.252;20.922;2023-01-26T00:08:07;101145.25;;;0.29;100.00
61697;BME280;47610;52.252;20.922;2023-01-26T00:13:12;101149.25;;;0.36;100.00
61697;BME280;47610;52.252;20.922;2023-01-26T00:18:16;101148.64;;;0.38;100.00
61697;BME280;47610;52.252;20.922;2023-01-26T00:23:20;101139.41;;;0.39;100.00
61697;BME280;47610;52.252;20.922;2023-01-26T00:28:24;101138.88;;;0.40;100.00
61697;BME280;47610;52.252;20.922;2023-01-26T00:33:29;101128.44;;;0.42;100.00
61697;BME280;47610;52.252;20.922;2023-01-26T00:38:35;101135.58;;;0.46;100.00
61697;BME280;47610;52.252;20.922;2023-01-26T00:43:38;101130.20;;;0.49;100.00
61697;BME280;47610;52.252;20.922;2023-01-26T00:48:43;101125.06;;;0.49;100.00
61697;BME280;47610;52.252;20.922;2023-01-26T00:53:46;101125.95;;;0.53;100.00
61697;BME280;47610;52.252;20.922;2023-01-26T00:58:50;101116.04;;;0.55;100.00
61697;BME280;47610;52.252;20.922;2023-01-26T01:03:54;101117.57;;;0.54;100.00
61697;BME280;47610;52.252;20.922;2023-01-26T01:08:57;101122.48;;;0.50;100.00
61697;BME280;47610;52.252;20.922;2023-01-26T01:14:01;101121.09;;;0.45;100.00
61697;BME280;47610;52.252;20.922;2023-01-26T01:19:04;101120.40;;;0.46;100.00
61697;BME280;47610;52.252;20.922;2023-01-26T01:24:11;101111.92;;;0.44;100.00
61697;BME280;47610;52.252;20.922;2023-01-26T01:29:16;101094.67;;;0.42;100.00
61697;BME280;47610;52.252;20.922;2023-01-26T01:34:19;101085.85;;;0.41;100.00
61697;BME280;47610;52.252;20.922;2023-01-26T01:39:23;101074.05;;;0.34;100.00
61697;BME280;47610;52.252;20.922;2023-01-26T01:44:27;101077.14;;;0.34;100.00
61697;BME280;47610;52.252;20.922;2023-01-26T01:57:46;101050.54;;;0.31;100.00
61697;BME280;47610;52.252;20.922;2023-01-26T02:02:56;101043.02;;;0.27;100.00
61697;BME280;47610;52.252;20.922;2023-01-26T02:08:00;101040.29;;;0.24;100.00
61697;BME280;47610;52.252;20.922;2023-01-26T02:13:03;101041.59;;;0.25;100.00
61697;BME280;47610;52.252;20.922;2023-01-26T02:18:08;101037.33;;;0.24;100.00
61697;BME280;47610;52.252;20.922;2023-01-26T02:23:21;101035.52;;;0.24;100.00
61697;BME280;47610;52.252;20.922;2023-01-26T02:28:28;101029.67;;;0.29;100.00
61697;BME280;47610;52.252;20.922;2023-01-26T02:33:33;101027.85;;;0.34;100.00
61697;BME280;47610;52.252;20.922;2023-01-26T02:38:41;101022.73;;;0.34;100.00
61697;BME280;47610;52.252;20.922;2023-01-26T02:43:45;101018.28;;;0.36;100.00
61697;BME280;47610;52.252;20.922;2023-01-26T02:48:49;101018.39;;;0.41;100.00
61697;BME280;47610;52.252;20.922;2023-01-26T02:53:53;101011.02;;;0.47;100.00
61697;BME280;47610;52.252;20.922;2023-01-26T02:58:56;101004.76;;;0.49;100.00
61697;BME280;47610;52.252;20.922;2023-01-26T03:04:00;100993.58;;;0.49;100.00
61697;BME280;47610;52.252;20.922;2023-01-26T03:09:04;100985.19;;;0.48;100.00
61697;BME280;47610;52.252;20.922;2023-01-26T03:14:08;100980.85;;;0.52;100.00
61697;BME280;47610;52.252;20.922;2023-01-26T03:19:12;100979.25;;;0.55;100.00
61697;BME280;47610;52.252;20.922;2023-01-26T03:24:16;100972.23;;;0.57;100.00
61697;BME280;47610;52.252;20.922;2023-01-26T03:29:21;100963.98;;;0.56;100.00
61697;BME280;47610;52.252;20.922;2023-01-26T03:34:24;100952.35;;;0.56;100.00
61697;BME280;47610;52.252;20.922;2023-01-26T03:39:27;100952.45;;;0.54;100.00
61697;BME280;47610;52.252;20.922;2023-01-26T03:44:32;100950.89;;;0.54;100.00
61697;BME280;47610;52.252;20.922;2023-01-26T03:49:36;100951.23;;;0.58;100.00
61697;BME280;47610;52.252;20.922;2023-01-26T03:54:39;100940.72;;;0.63;100.00
61697;BME280;47610;52.252;20.922;2023-01-26T03:59:43;100932.91;;;0.67;100.00
61697;BME280;47610;52.252;20.922;2023-01-26T04:04:47;100932.77;;;0.70;100.00
61697;BME280;47610;52.252;20.922;2023-01-26T04:18:07;100928.55;;;0.74;100.00
61697;BME280;47610;52.252;20.922;2023-01-26T04:23:19;100926.54;;;0.72;100.00
61697;BME280;47610;52.252;20.922;2023-01-26T04:28:23;100925.31;;;0.72;100.00
61697;BME280;47610;52.252;20.922;2023-01-26T04:33:26;100930.59;;;0.73;100.00
61697;BME280;47610;52.252;20.922;2023-01-26T04:38:30;100931.13;;;0.69;100.00
61697;BME280;47610;52.252;20.922;2023-01-26T04:43:33;100928.82;;;0.65;100.00
61697;BME280;47610;52.252;20.922;2023-01-26T04:48:37;100926.50;;;0.67;100.00
61697;BME280;47610;52.252;20.922;2023-01-26T04:53:42;100929.20;;;0.68;100.00
61697;BME280;47610;52.252;20.922;2023-01-26T04:58:46;100921.78;;;0.67;100.00
61697;BME280;47610;52.252;20.922;2023-01-26T05:03:50;100918.95;;;0.68;100.00
61697;BME280;47610;52.252;20.922;2023-01-26T05:08:53;100916.89;;;0.64;100.00
61697;BME280;47610;52.252;20.922;2023-01-26T05:13:58;100910.61;;;0.62;100.00
61697;BME280;47610;52.252;20.922;2023-01-26T05:19:02;100917.58;;;0.61;100.00
61697;BME280;47610;52.252;20.922;2023-01-26T05:24:09;100909.90;;;0.61;100.00
61697;BME280;47610;52.252;20.922;2023-01-26T05:29:13;100905.07;;;0.59;100.00
61697;BME280;47610;52.252;20.922;2023-01-26T05:34:16;100906.98;;;0.55;100.00
61697;BME280;47610;52.252;20.922;2023-01-26T05:39:20;100897.66;;;0.51;100.00
61697;BME280;47610;52.252;20.922;2023-01-26T05:44:24;100905.58;;;0.51;100.00
61697;BME280;47610;52.252;20.922;2023-01-26T05:49:29;100905.48;;;0.50;100.00
61697;BME280;47610;52.252;20.922;2023-01-26T05:54:34;100905.79;;;0.52;100.00
61697;BME280;47610;52.252;20.922;2023-01-26T05:59:37;100909.98;;;0.53;100.00
61697;BME280;47610;52.252;20.922;2023-01-26T06:04:42;100919.02;;;0.54;100.00
61697;BME280;47610;52.252;20.922;2023-01-26T06:09:45;100919.14;;;0.55;100.00
61697;BME280;47610;52.252;20.922;2023-01-26T06:14:50;100911.86;;;0.55;100.00
61697;BME280;47610;52.252;20.922;2023-01-26T06:19:54;100917.80;;;0.58;100.00
61697;BME280;47610;52.252;20.922;2023-01-26T06:24:56;100910.52;;;0.59;100.00
61697;BME280;47610;52.252;20.922;2023-01-26T06:38:28;100903.20;;;0.55;100.00
61697;BME280;47610;52.252;20.922;2023-01-26T06:43:33;100902.83;;;0.50;100.00
61697;BME280;47610;52.252;20.922;2023-01-26T06:48:39;100900.62;;;0.45;100.00
61697;BME280;47610;52.252;20.922;2023-01-26T06:53:48;100897.91;;;0.40;100.00
61697;BME280;47610;52.252;20.922;2023-01-26T06:58:53;100889.02;;;0.38;100.00
61697;BME280;47610;52.252;20.922;2023-01-26T07:03:57;100887.66;;;0.33;100.00
61697;BME280;47610;52.252;20.922;2023-01-26T07:09:01;100889.11;;;0.29;100.00
61697;BME280;47610;52.252;20.922;2023-01-26T07:14:04;100893.88;;;0.28;100.00
61697;BME280;47610;52.252;20.922;2023-01-26T07:19:08;100891.69;;;0.28;100.00
61697;BME280;47610;52.252;20.922;2023-01-26T07:24:13;100891.19;;;0.28;100.00
61697;BME280;47610;52.252;20.922;2023-01-26T07:29:17;100882.63;;;0.26;100.00
61697;BME280;47610;52.252;20.922;2023-01-26T07:34:21;100879.83;;;0.25;100.00
61697;BME280;47610;52.252;20.922;2023-01-26T07:39:24;100877.19;;;0.27;100.00
61697;BME280;47610;52.252;20.922;2023-01-26T07:44:28;100873.17;;;0.28;100.00
61697;BME280;47610;52.252;20.922;2023-01-26T07:49:33;100869.73;;;0.28;100.00
61697;BME280;47610;52.252;20.922;2023-01-26T07:54:37;100869.98;;;0.27;100.00
61697;BME280;47610;52.252;20.922;2023-01-26T07:59:42;100879.08;;;0.30;100.00
61697;BME280;47610;52.252;20.922;2023-01-26T08:04:46;100877.86;;;0.33;100.00
61697;BME280;47610;52.252;20.922;2023-01-26T08:09:49;100876.40;;;0.39;100.00
61697;BME280;47610;52.252;20.922;2023-01-26T08:14:53;100873.66;;;0.45;100.00
61697;BME280;47610;52.252;20.922;2023-01-26T08:19:59;100874.51;;;0.48;100.00
61697;BME280;47610;52.252;20.922;2023-01-26T08:25:05;100874.04;;;0.52;100.00
61697;BME280;47610;52.252;20.922;2023-01-26T08:30:13;100871.98;;;0.62;100.00
61697;BME280;47610;52.252;20.922;2023-01-26T08:35:18;100866.97;;;0.75;100.00
61697;BME280;47610;52.252;20.922;2023-01-26T08:40:22;100855.36;;;0.84;100.00
61697;BME280;47610;52.252;20.922;2023-01-26T08:45:25;100863.29;;;1.00;100.00
61697;BME280;47610;52.252;20.922;2023-01-26T08:59:04;100870.94;;;1.24;100.00
61697;BME280;47610;52.252;20.922;2023-01-26T09:04:08;100874.05;;;1.22;100.00
61697;BME280;47610;52.252;20.922;2023-01-26T09:09:12;100883.13;;;1.24;100.00
61697;BME280;47610;52.252;20.922;2023-01-26T09:14:16;100886.45;;;1.21;100.00
61697;BME280;47610;52.252;20.922;2023-01-26T09:19:20;100891.52;;;1.19;100.00
61697;BME280;47610;52.252;20.922;2023-01-26T09:24:24;100894.34;;;1.15;100.00
61697;BME280;47610;52.252;20.922;2023-01-26T09:29:28;100891.50;;;1.15;100.00
61697;BME280;47610;52.252;20.922;2023-01-26T09:34:32;100884.64;;;1.16;100.00
61697;BME280;47610;52.252;20.922;2023-01-26T09:39:35;100880.80;;;1.18;100.00
61697;BME280;47610;52.252;20.922;2023-01-26T09:44:44;100875.45;;;1.15;100.00
61697;BME280;47610;52.252;20.922;2023-01-26T09:49:55;100868.45;;;1.12;100.00
61697;BME280;47610;52.252;20.922;2023-01-26T09:55:04;100873.57;;;1.07;100.00
61697;BME280;47610;52.252;20.922;2023-01-26T10:00:20;100866.98;;;1.05;100.00
61697;BME280;47610;52.252;20.922;2023-01-26T10:05:30;100862.98;;;1.08;100.00
61697;BME280;47610;52.252;20.922;2023-01-26T10:10:40;100850.27;;;1.10;100.00
61697;BME280;47610;52.252;20.922;2023-01-26T10:15:49;100846.73;;;1.19;100.00
61697;BME280;47610;52.252;20.922;2023-01-26T10:20:55;100847.22;;;1.29;100.00
61697;BME280;47610;52.252;20.922;2023-01-26T10:26:08;100838.87;;;1.38;100.00
61697;BME280;47610;52.252;20.922;2023-01-26T10:31:16;100832.10;;;1.52;100.00
61697;BME280;47610;52.252;20.922;2023-01-26T10:36:21;100825.73;;;1.59;100.00
61697;BME280;47610;52.252;20.922;2023-01-26T10:41:27;100821.44;;;1.47;100.00
61697;BME280;47610;52.252;20.922;2023-01-26T10:46:34;100813.25;;;1.45;100.00
61697;BME280;47610;52.252;20.922;2023-01-26T10:51:41;100814.89;;;1.48;100.00
61697;BME280;47610;52.252;20.922;2023-01-26T10:56:49;100806.85;;;1.55;100.00
61697;BME280;47610;52.252;20.922;2023-01-26T11:01:54;100795.11;;;1.56;100.00
61697;BME280;47610;52.252;20.922;2023-01-26T11:07:00;100785.52;;;1.62;100.00
61697;BME280;47610;52.252;20.922;2023-01-26T11:17:42;100774.21;;;1.78;100.00
61697;BME280;47610;52.252;20.922;2023-01-26T11:22:53;100769.95;;;1.80;100.00
61697;BME280;47610;52.252;20.922;2023-01-26T11:28:14;100764.58;;;1.76;100.00
61697;BME280;47610;52.252;20.922;2023-01-26T11:33:28;100761.86;;;1.77;100.00
61697;BME280;47610;52.252;20.922;2023-01-26T11:38:39;100755.42;;;1.79;100.00
61697;BME280;47610;52.252;20.922;2023-01-26T11:43:58;100750.67;;;1.78;100.00
61697;BME280;47610;52.252;20.922;2023-01-26T11:49:15;100744.91;;;1.74;100.00
61697;BME280;47610;52.252;20.922;2023-01-26T11:54:33;100738.35;;;1.82;100.00
61697;BME280;47610;52.252;20.922;2023-01-26T11:59:46;100740.98;;;1.88;100.00
61697;BME280;47610;52.252;20.922;2023-01-26T12:04:54;100733.00;;;1.91;100.00
61697;BME280;47610;52.252;20.922;2023-01-26T12:09:59;100731.99;;;1.91;100.00
61697;BME280;47610;52.252;20.922;2023-01-26T12:15:09;100730.78;;;1.86;100.00
61697;BME280;47610;52.252;20.922;2023-01-26T12:20:22;100726.98;;;1.85;100.00
61697;BME280;47610;52.252;20.922;2023-01-26T12:25:33;100727.70;;;1.81;100.00
61697;BME280;47610;52.252;20.922;2023-01-26T12:30:46;100722.94;;;1.72;100.00
61697;BME280;47610;52.252;20.922;2023-01-26T12:36:07;100719.64;;;1.66;100.00
61697;BME280;47610;52.252;20.922;2023-01-26T12:41:21;100724.06;;;1.61;100.00
61697;BME280;47610;52.252;20.922;2023-01-26T12:46:30;100718.73;;;1.57;100.00
61697;BME280;47610;52.252;20.922;2023-01-26T12:51:38;100711.13;;;1.52;100.00
61697;BME280;47610;52.252;20.922;2023-01-26T12:56:48;100715.52;;;1.51;100.00
61697;BME280;47610;52.252;20.922;2023-01-26T13:01:54;100719.02;;;1.42;100.00
61697;BME280;47610;52.252;20.922;2023-01-26T13:07:24;100721.97;;;1.42;100.00
61697;BME280;47610;52.252;20.922;2023-01-26T13:12:46;100713.95;;;1.39;100.00
61697;BME280;47610;52.252;20.922;2023-01-26T13:17:52;100707.46;;;1.27;100.00
61697;BME280;47610;52.252;20.922;2023-01-26T13:22:57;100704.88;;;1.22;100.00
61697;BME280;47610;52.252;20.922;2023-01-26T13:28:03;100703.29;;;1.17;100.00
61697;BME280;47610;52.252;20.922;2023-01-26T13:38:02;100696.84;;;1.08;100.00
61697;BME280;47610;52.252;20.922;2023-01-26T13:43:14;100694.20;;;1.01;100.00
61697;BME280;47610;52.252;20.922;2023-01-26T13:48:35;100697.32;;;0.98;100.00
61697;BME280;47610;52.252;20.922;2023-01-26T13:53:40;100695.11;;;0.99;100.00
61697;BME280;47610;52.252;20.922;2023-01-26T13:58:45;100690.23;;;0.95;100.00
61697;BME280;47610;52.252;20.922;2023-01-26T14:03:57;100693.92;;;0.87;100.00
61697;BME280;47610;52.252;20.922;2023-01-26T14:09:06;100692.31;;;0.77;100.00
61697;BME280;47610;52.252;20.922;2023-01-26T14:14:18;100689.08;;;0.73;100.00
61697;BME280;47610;52.252;20.922;2023-01-26T14:19:24;100689.02;;;0.71;100.00
61697;BME280;47610;52.252;20.922;2023-01-26T14:24:35;100686.14;;;0.68;100.00
61697;BME280;47610;52.252;20.922;2023-01-26T14:29:39;100685.48;;;0.66;100.00
61697;BME280;47610;52.252;20.922;2023-01-26T14:34:53;100683.48;;;0.69;100.00
61697;BME280;47610;52.252;20.922;2023-01-26T14:40:20;100675.83;;;0.75;100.00
61697;BME280;47610;52.252;20.922;2023-01-26T14:45:29;100674.70;;;0.71;100.00
61697;BME280;47610;52.252;20.922;2023-01-26T14:50:34;100670.86;;;0.58;100.00
61697;BME280;47610;52.252;20.922;2023-01-26T14:55:40;100674.27;;;0.45;100.00
61697;BME280;47610;52.252;20.922;2023-01-26T15:00:48;100673.65;;;0.36;100.00
61697;BME280;47610;52.252;20.922;2023-01-26T15:06:04;100667.13;;;0.32;100.00
61697;BME280;47610;52.252;20.922;2023-01-26T15:11:10;100671.17;;;0.28;100.00
61697;BME280;47610;52.252;20.922;2023-01-26T15:16:15;100667.21;;;0.26;100.00
61697;BME280;47610;52.252;20.922;2023-01-26T15:21:21;100666.90;;;0.20;100.00
61697;BME280;47610;52.252;20.922;2023-01-26T15:26:30;100665.76;;;0.25;100.00
61697;BME280;47610;52.252;20.922;2023-01-26T15:31:39;100665.02;;;0.28;100.00
61697;BME280;47610;52.252;20.922;2023-01-26T15:36:51;100665.95;;;0.29;100.00
61697;BME280;47610;52.252;20.922;2023-01-26T15:42:11;100663.20;;;0.29;100.00
61697;BME280;47610;52.252;20.922;2023-01-26T15:47:13;100669.75;;;0.33;100.00
61697;BME280;47610;52.252;20.922;2023-01-26T15:57:35;100681.34;;;0.36;100.00
61697;BME280;47610;52.252;20.922;2023-01-26T16:02:38;100683.08;;;0.32;100.00
61697;BME280;47610;52.252;20.922;2023-01-26T16:07:44;100683.12;;;0.33;100.00
61697;BME280;47610;52.252;20.922;2023-01-26T16:12:49;100684.23;;;0.36;100.00
61697;BME280;47610;52.252;20.922;2023-01-26T16:17:55;100686.90;;;0.40;100.00
61697;BME280;47610;52.252;20.922;2023-01-26T16:22:58;100681.77;;;0.45;100.00
61697;BME280;47610;52.252;20.922;2023-01-26T16:28:02;100686.05;;;0.52;100.00
61697;BME280;47610;52.252;20.922;2023-01-26T16:33:06;100685.21;;;0.51;100.00
61697;BME280;47610;52.252;20.922;2023-01-26T16:38:09;100688.66;;;0.61;100.00
61697;BME280;47610;52.252;20.922;2023-01-26T16:43:17;100682.45;;;0.60;100.00
61697;BME280;47610;52.252;20.922;2023-01-26T16:48:22;100680.86;;;0.58;100.00
61697;BME280;47610;52.252;20.922;2023-01-26T16:53:28;100682.33;;;0.61;100.00
61697;BME280;47610;52.252;20.922;2023-01-26T16:58:33;100681.11;;;0.56;100.00
61697;BME280;47610;52.252;20.922;2023-01-26T17:03:36;100684.42;;;0.54;100.00
61697;BME280;47610;52.252;20.922;2023-01-26T17:08:41;100690.06;;;0.56;100.00
61697;BME280;47610;52.252;20.922;2023-01-26T17:13:45;100684.98;;;0.56;100.00
61697;BME280;47610;52.252;20.922;2023-01-26T17:18:48;100683.42;;;0.55;100.00
61697;BME280;47610;52.252;20.922;2023-01-26T17:23:53;100678.94;;;0.50;100.00
61697;BME280;47610;52.252;20.922;2023-01-26T17:28:57;100677.77;;;0.39;100.00
61697;BME280;47610;52.252;20.922;2023-01-26T17:34:02;100673.44;;;0.27;100.00
61697;BME280;47610;52.252;20.922;2023-01-26T17:39:07;100665.96;;;0.19;100.00
61697;BME280;47610;52.252;20.922;2023-01-26T17:44:13;100662.87;;;0.15;100.00
61697;BME280;47610;52.252;20.922;2023-01-26T17:49:17;100657.95;;;0.14;100.00
61697;BME280;47610;52.252;20.922;2023-01-26T17:54:19;100660.58;;;0.13;100.00
61697;BME280;47610;52.252;20.922;2023-01-26T17:59:24;100663.38;;;0.14;100.00
61697;BME280;47610;52.252;20.922;2023-01-26T18:04:27;100672.07;;;0.19;100.00
61697;BME280;47610;52.252;20.922;2023-01-26T18:18:09;100680.73;;;0.12;100.00
61697;BME280;47610;52.252;20.922;2023-01-26T18:23:13;100680.78;;;0.08;100.00
61697;BME280;47610;52.252;20.922;2023-01-26T18:28:17;100680.80;;;0.02;100.00
61697;BME280;47610;52.252;20.922;2023-01-26T18:33:22;100682.50;;;0.00;100.00
61697;BME280;47610;52.252;20.922;2023-01-26T18:38:25;100676.70;;;0.02;100.00
61697;BME280;47610;52.252;20.922;2023-01-26T18:43:29;100674.11;;;0.04;100.00
61697;BME280;47610;52.252;20.922;2023-01-26T18:48:33;100680.27;;;0.09;100.00
61697;BME280;47610;52.252;20.922;2023-01-26T18:53:38;100678.30;;;0.09;100.00
61697;BME280;47610;52.252;20.922;2023-01-26T18:58:42;100678.61;;;0.05;100.00
61697;BME280;47610;52.252;20.922;2023-01-26T19:03:50;100682.18;;;0.04;100.00
61697;BME280;47610;52.252;20.922;2023-01-26T19:08:56;100677.43;;;0.03;100.00
61697;BME280;47610;52.252;20.922;2023-01-26T19:14:01;100681.15;;;0.05;100.00
61697;BME280;47610;52.252;20.922;2023-01-26T19:19:06;100676.54;;;0.07;100.00
61697;BME280;47610;52.252;20.922;2023-01-26T19:24:11;100685.35;;;0.12;100.00
61697;BME280;47610;52.252;20.922;2023-01-26T19:29:14;100693.33;;;0.14;100.00
61697;BME280;47610;52.252;20.922;2023-01-26T19:34:18;100689.52;;;0.14;100.00
61697;BME280;47610;52.252;20.922;2023-01-26T19:39:23;100689.66;;;0.18;100.00
61697;BME280;47610;52.252;20.922;2023-01-26T19:44:26;100688.28;;;0.22;100.00
61697;BME280;47610;52.252;20.922;2023-01-26T19:49:29;100691.44;;;0.28;100.00
61697;BME280;47610;52.252;20.922;2023-01-26T19:54:33;100688.33;;;0.32;100.00
61697;BME280;47610;52.252;20.922;2023-01-26T19:59:38;100683.92;;;0.34;100.00
61697;BME280;47610;52.252;20.922;2023-01-26T20:04:41;100681.73;;;0.35;100.00
61697;BME280;47610;52.252;20.922;2023-01-26T20:09:47;100682.80;;;0.34;100.00
61697;BME280;47610;52.252;20.922;2023-01-26T20:14:51;100678.58;;;0.32;100.00
61697;BME280;47610;52.252;20.922;2023-01-26T20:19:55;100675.16;;;0.32;100.00
61697;BME280;47610;52.252;20.922;2023-01-26T20:24:58;100671.31;;;0.35;100.00
61697;BME280;47610;52.252;20.922;2023-01-26T20:37:43;100669.56;;;0.47;100.00
61697;BME280;47610;52.252;20.922;2023-01-26T20:42:46;100663.77;;;0.44;100.00
61697;BME280;47610;52.252;20.922;2023-01-26T20:47:52;100671.15;;;0.46;100.00
61697;BME280;47610;52.252;20.922;2023-01-26T20:52:55;100666.52;;;0.45;100.00
61697;BME280;47610;52.252;20.922;2023-01-26T20:58:00;100665.90;;;0.39;100.00
61697;BME280;47610;52.252;20.922;2023-01-26T21:03:03;100662.15;;;0.31;100.00
61697;BME280;47610;52.252;20.922;2023-01-26T21:08:07;100663.19;;;0.28;100.00
61697;BME280;47610;52.252;20.922;2023-01-26T21:13:11;100658.36;;;0.29;100.00
61697;BME280;47610;52.252;20.922;2023-01-26T21:18:15;100663.65;;;0.29;100.00
61697;BME280;47610;52.252;20.922;2023-01-26T21:23:18;100665.85;;;0.26;100.00
61697;BME280;47610;52.252;20.922;2023-01-26T21:28:23;100668.42;;;0.25;100.00
61697;BME280;47610;52.252;20.922;2023-01-26T21:33:26;100665.66;;;0.24;100.00
61697;BME280;47610;52.252;20.922;2023-01-26T21:38:32;100668.03;;;0.30;100.00
61697;BME280;47610;52.252;20.922;2023-01-26T21:43:38;100673.73;;;0.36;100.00
61697;BME280;47610;52.252;20.922;2023-01-26T21:48:41;100667.45;;;0.41;100.00
61697;BME280;47610;52.252;20.922;2023-01-26T21:53:45;100667.02;;;0.44;100.00
61697;BME280;47610;52.252;20.922;2023-01-26T21:58:50;100663.36;;;0.46;100.00
61697;BME280;47610;52.252;20.922;2023-01-26T22:03:57;100666.39;;;0.46;100.00
61697;BME280;47610;52.252;20.922;2023-01-26T22:09:01;100653.98;;;0.45;100.00
61697;BME280;47610;52.252;20.922;2023-01-26T22:14:04;100658.06;;;0.49;100.00
61697;BME280;47610;52.252;20.922;2023-01-26T22:19:10;100662.46;;;0.51;100.00
61697;BME280;47610;52.252;20.922;2023-01-26T22:24:16;100658.92;;;0.56;100.00
61697;BME280;47610;52.252;20.922;2023-01-26T22:29:20;100651.61;;;0.60;100.00
61697;BME280;47610;52.252;20.922;2023-01-26T22:34:23;100652.45;;;0.65;100.00
61697;BME280;47610;52.252;20.922;2023-01-26T22:39:26;100646.84;;;0.66;100.00
61697;BME280;47610;52.252;20.922;2023-01-26T22:44:30;100651.32;;;0.63;100.00
61697;BME280;47610;52.252;20.922;2023-01-26T22:57:04;100663.94;;;0.61;100.00
61697;BME280;47610;52.252;20.922;2023-01-26T23:02:10;100659.10;;;0.56;100.00
61697;BME280;47610;52.252;20.922;2023-01-26T23:07:14;100659.73;;;0.57;100.00
61697;BME280;47610;52.252;20.922;2023-01-26T23:12:17;100656.85;;;0.58;100.00
61697;BME280;47610;52.252;20.922;2023-01-26T23:17:20;100649.77;;;0.56;100.00
61697;BME280;47610;52.252;20.922;2023-01-26T23:22:24;100645.51;;;0.56;100.00
61697;BME280;47610;52.252;20.922;2023-01-26T23:27:27;100637.02;;;0.57;100.00
61697;BME280;47610;52.252;20.922;2023-01-26T23:32:30;100633.70;;;0.53;100.00
61697;BME280;47610;52.252;20.922;2023-01-26T23:37:35;100637.66;;;0.52;100.00
61697;BME280;47610;52.252;20.922;2023-01-26T23:42:39;100634.79;;;0.53;100.00
61697;BME280;47610;52.252;20.922;2023-01-26T23:47:42;100632.01;;;0.55;100.00
61697;BME280;47610;52.252;20.922;2023-01-26T23:52:45;100632.05;;;0.57;100.00
61697;BME280;47610;52.252;20.922;2023-01-26T23:57:49;100633.34;;;0.57;100.00
